Time;durP1;ratioP1;P1;durP2;ratioP2;P2;SDS_P1;SDS_P2;PMS_P1;PMS_P2;Temp;Humidity;BMP_temperature;BMP_pressure;BME280_temperature;BME280_humidity;BME280_pressure;Samples;Min_cycle;Max_cycle;Signal;HPM_P1;HPM_P2
2020/07/27 00:01:06;;;;;;;4.2;2.5;;;;;;;16.17;100;961.6641;;;;
2020/07/27 00:03:31;;;;;;;6.8;2.9;;;;;;;16.17;100;961.6797;;;;
2020/07/27 00:05:57;;;;;;;7.9;2.9;;;;;;;16.19;100;961.6608;;;;
2020/07/27 00:08:32;;;;;;;8.7;2.9;;;;;;;16.09;100;961.665;;;;
2020/07/27 00:10:58;;;;;;;9.2;2.9;;;;;;;16.12;100;961.6525;;;;
2020/07/27 00:13:26;;;;;;;6.4;2.7;;;;;;;16.14;100;961.5514;;;;
2020/07/27 00:15:51;;;;;;;7.3;2.7;;;;;;;16.1;100;961.5737;;;;
2020/07/27 00:18:18;;;;;;;4.5;2.5;;;;;;;16.16;100;961.5466;;;;
2020/07/27 00:20:44;;;;;;;9.2;2.9;;;;;;;16.14;100;961.6222;;;;
2020/07/27 00:23:11;;;;;;;8.5;2.9;;;;;;;16.15;100;961.5956;;;;
2020/07/27 00:25:38;;;;;;;10.1;2.9;;;;;;;15.95;100;961.5505;;;;
2020/07/27 00:28:06;;;;;;;7.6;3;;;;;;;15.98;100;961.5916;;;;
2020/07/27 00:30:47;;;;;;;6.1;3;;;;;;;15.91;100;961.5281;;;;
2020/07/27 00:33:15;;;;;;;9.5;3.2;;;;;;;15.89;100;961.5258;;;;
2020/07/27 00:35:40;;;;;;;11.2;3.3;;;;;;;15.85;100;961.5756;;;;
2020/07/27 00:38:07;;;;;;;10.8;3.1;;;;;;;15.81;100;961.5173;;;;
2020/07/27 00:40:33;;;;;;;9;3.1;;;;;;;15.78;100;961.5387;;;;
2020/07/27 00:43:00;;;;;;;9.4;3.3;;;;;;;15.8;100;961.5544;;;;
2020/07/27 00:45:28;;;;;;;8.5;3.2;;;;;;;15.77;100;961.5181;;;;
2020/07/27 00:47:55;;;;;;;8.5;3.3;;;;;;;15.79;100;961.5187;;;;
2020/07/27 00:50:20;;;;;;;9;3.5;;;;;;;15.82;100;961.5591;;;;
2020/07/27 00:52:46;;;;;;;6.6;3;;;;;;;15.88;100;961.4869;;;;
2020/07/27 00:55:11;;;;;;;7;3.5;;;;;;;15.84;100;961.5535;;;;
2020/07/27 00:57:37;;;;;;;9.8;3.6;;;;;;;15.84;100;961.5995;;;;
2020/07/27 01:00:02;;;;;;;6.5;3.7;;;;;;;15.85;100;961.6192;;;;
2020/07/27 01:02:33;;;;;;;11.8;3.8;;;;;;;15.88;100;961.5831;;;;
2020/07/27 01:05:05;;;;;;;8.6;3.8;;;;;;;15.88;100;961.6464;;;;
2020/07/27 01:07:34;;;;;;;8.8;3.3;;;;;;;15.82;100;961.5887;;;;
2020/07/27 01:10:02;;;;;;;5.1;3.8;;;;;;;15.83;100;961.5997;;;;
2020/07/27 01:12:35;;;;;;;7.4;3.5;;;;;;;15.85;100;961.5839;;;;
2020/07/27 01:15:10;;;;;;;10.8;3.9;;;;;;;15.87;100;961.5429;;;;
2020/07/27 01:17:43;;;;;;;5.7;3.3;;;;;;;15.91;100;961.4705;;;;
2020/07/27 01:20:11;;;;;;;8.8;3.7;;;;;;;15.8;100;961.5042;;;;
2020/07/27 01:22:44;;;;;;;7.1;3.6;;;;;;;15.91;100;961.4913;;;;
2020/07/27 01:25:13;;;;;;;9.9;3.7;;;;;;;15.88;100;961.4934;;;;
2020/07/27 01:27:43;;;;;;;10.1;4.5;;;;;;;15.89;100;961.4461;;;;
2020/07/27 01:30:20;;;;;;;8.6;4;;;;;;;15.94;100;961.4673;;;;
2020/07/27 01:32:47;;;;;;;10.2;4;;;;;;;15.96;100;961.4033;;;;
2020/07/27 01:35:12;;;;;;;7.3;3.8;;;;;;;15.93;100;961.4303;;;;
2020/07/27 01:37:39;;;;;;;10;3.9;;;;;;;15.91;100;961.3762;;;;
2020/07/27 01:40:10;;;;;;;7.7;3.8;;;;;;;15.85;100;961.3727;;;;
2020/07/27 01:42:36;;;;;;;9.2;3.6;;;;;;;15.9;100;961.3457;;;;
2020/07/27 01:45:01;;;;;;;9.4;3.6;;;;;;;15.86;100;961.3375;;;;
2020/07/27 01:47:33;;;;;;;8;3.8;;;;;;;15.83;100;961.3201;;;;
2020/07/27 01:50:07;;;;;;;8.7;3.7;;;;;;;15.81;100;961.3201;;;;
2020/07/27 01:52:38;;;;;;;9;4;;;;;;;15.69;100;961.3503;;;;
2020/07/27 01:55:03;;;;;;;7.9;3.7;;;;;;;15.63;100;961.3268;;;;
2020/07/27 01:57:32;;;;;;;7.8;3.2;;;;;;;15.7;100;961.3568;;;;
2020/07/27 01:59:57;;;;;;;9.2;3.4;;;;;;;15.7;100;961.4077;;;;
2020/07/27 02:02:22;;;;;;;4.5;3.2;;;;;;;15.68;100;961.4744;;;;
2020/07/27 02:04:51;;;;;;;7.8;3.2;;;;;;;15.69;100;961.4752;;;;
2020/07/27 02:07:24;;;;;;;5.2;3.4;;;;;;;15.73;100;961.4835;;;;
2020/07/27 02:09:54;;;;;;;7.8;3.6;;;;;;;15.57;100;961.4713;;;;
2020/07/27 02:12:19;;;;;;;7.8;3.3;;;;;;;15.64;100;961.5111;;;;
2020/07/27 02:14:44;;;;;;;4.8;3.8;;;;;;;15.53;100;961.4409;;;;
2020/07/27 02:17:09;;;;;;;8.5;3.6;;;;;;;15.57;100;961.4417;;;;
2020/07/27 02:19:44;;;;;;;9.3;3.6;;;;;;;15.54;100;961.4161;;;;
2020/07/27 02:22:11;;;;;;;8.3;3.6;;;;;;;15.54;100;961.3709;;;;
2020/07/27 02:24:36;;;;;;;9.1;3.7;;;;;;;15.62;100;961.4214;;;;
2020/07/27 02:27:05;;;;;;;8.1;3.3;;;;;;;15.6;100;961.445;;;;
2020/07/27 02:29:30;;;;;;;8;3.6;;;;;;;15.59;100;961.4583;;;;
2020/07/27 02:31:57;;;;;;;10.1;3.2;;;;;;;15.58;100;961.4589;;;;
2020/07/27 02:34:26;;;;;;;7.3;3.5;;;;;;;15.53;100;961.4483;;;;
2020/07/27 02:36:51;;;;;;;8.7;3.4;;;;;;;15.55;100;961.4013;;;;
2020/07/27 02:39:17;;;;;;;6.3;3.1;;;;;;;15.54;100;961.44;;;;
2020/07/27 02:41:44;;;;;;;10.5;3.6;;;;;;;15.51;100;961.3799;;;;
2020/07/27 02:44:12;;;;;;;5.1;3.4;;;;;;;15.5;100;961.384;;;;
2020/07/27 02:46:37;;;;;;;6.9;3.4;;;;;;;15.48;100;961.3494;;;;
2020/07/27 02:49:02;;;;;;;5.4;3.7;;;;;;;15.47;100;961.3035;;;;
2020/07/27 02:51:30;;;;;;;4.6;3.3;;;;;;;15.47;100;961.2937;;;;
2020/07/27 02:53:55;;;;;;;9.1;3.3;;;;;;;15.47;100;961.2427;;;;
2020/07/27 02:56:27;;;;;;;8;3.5;;;;;;;15.48;100;961.1646;;;;
2020/07/27 02:58:57;;;;;;;8;3.7;;;;;;;15.45;100;961.2;;;;
2020/07/27 03:01:22;;;;;;;10.2;3.9;;;;;;;15.45;100;961.2442;;;;
2020/07/27 03:03:51;;;;;;;8.8;3.5;;;;;;;15.45;100;961.2566;;;;
2020/07/27 03:06:17;;;;;;;7.6;3.5;;;;;;;15.42;100;961.2425;;;;
2020/07/27 03:08:42;;;;;;;8.4;4.1;;;;;;;15.39;100;961.1891;;;;
2020/07/27 03:11:07;;;;;;;6.4;3.8;;;;;;;15.36;100;961.2275;;;;
2020/07/27 03:13:39;;;;;;;6;3.7;;;;;;;15.3;100;961.2849;;;;
2020/07/27 03:16:09;;;;;;;7.6;3.9;;;;;;;15.32;100;961.2941;;;;
2020/07/27 03:18:37;;;;;;;5.8;4;;;;;;;15.36;100;961.3089;;;;
2020/07/27 03:21:02;;;;;;;6.9;3.7;;;;;;;15.29;100;961.3103;;;;
2020/07/27 03:23:29;;;;;;;11.8;3.9;;;;;;;15.25;100;961.3856;;;;
2020/07/27 03:25:54;;;;;;;9;4.1;;;;;;;15.27;100;961.3439;;;;
2020/07/27 03:28:32;;;;;;;8.3;4.2;;;;;;;15.27;100;961.2996;;;;
2020/07/27 03:30:58;;;;;;;5.8;3.6;;;;;;;15.28;100;961.2683;;;;
2020/07/27 03:33:26;;;;;;;7.8;3.9;;;;;;;15.25;100;961.2665;;;;
2020/07/27 03:35:52;;;;;;;7.4;3.7;;;;;;;15.25;100;961.2714;;;;
2020/07/27 03:38:20;;;;;;;4.9;3.3;;;;;;;15.32;100;961.2604;;;;
2020/07/27 03:40:46;;;;;;;9.2;4.1;;;;;;;15.27;100;961.2395;;;;
2020/07/27 03:43:13;;;;;;;9.2;3.7;;;;;;;15.26;100;961.2438;;;;
2020/07/27 03:45:41;;;;;;;9.6;3.6;;;;;;;15.26;100;961.2372;;;;
2020/07/27 03:48:11;;;;;;;11.8;3.4;;;;;;;15.32;100;961.1775;;;;
2020/07/27 03:50:36;;;;;;;8.6;3.5;;;;;;;15.32;100;961.1397;;;;
2020/07/27 03:53:04;;;;;;;6.6;3.3;;;;;;;15.26;100;961.183;;;;
2020/07/27 03:55:34;;;;;;;5.3;3;;;;;;;15.25;100;961.1926;;;;
2020/07/27 03:57:59;;;;;;;6.1;3;;;;;;;15.26;100;961.1149;;;;
2020/07/27 04:02:43;;;;;;;8.8;3.3;;;;;;;15.19;100;961.176;;;;
2020/07/27 04:05:18;;;;;;;9.2;3.4;;;;;;;15.22;100;961.1663;;;;
2020/07/27 04:07:45;;;;;;;8.1;3.5;;;;;;;15.12;100;961.1372;;;;
2020/07/27 04:10:15;;;;;;;10;3.8;;;;;;;15.15;100;961.1685;;;;
2020/07/27 04:12:41;;;;;;;6.3;3.2;;;;;;;15.12;100;961.1553;;;;
2020/07/27 04:15:06;;;;;;;7.7;3.5;;;;;;;15.12;100;961.1873;;;;
2020/07/27 04:17:32;;;;;;;6;3.3;;;;;;;15.07;100;961.1976;;;;
2020/07/27 04:20:15;;;;;;;11.7;3.8;;;;;;;15.11;100;961.18;;;;
2020/07/27 04:22:41;;;;;;;8.6;3.6;;;;;;;15.1;100;961.1699;;;;
2020/07/27 04:25:07;;;;;;;6.3;3.5;;;;;;;15.12;100;961.2169;;;;
2020/07/27 04:27:32;;;;;;;5.1;3.3;;;;;;;15.16;100;961.134;;;;
2020/07/27 04:30:02;;;;;;;5.6;3.4;;;;;;;15.24;100;961.127;;;;
2020/07/27 04:32:27;;;;;;;9.1;3.5;;;;;;;15.31;100;961.128;;;;
2020/07/27 04:34:57;;;;;;;6.1;3.3;;;;;;;15.25;100;961.1655;;;;
2020/07/27 04:37:24;;;;;;;7.3;3.6;;;;;;;15.33;100;961.2645;;;;
2020/07/27 04:39:53;;;;;;;5.8;3.7;;;;;;;15.2;100;961.2444;;;;
2020/07/27 04:42:21;;;;;;;9.7;4.5;;;;;;;15.12;100;961.3005;;;;
2020/07/27 04:44:50;;;;;;;8.3;4.5;;;;;;;15.12;100;961.3605;;;;
2020/07/27 04:47:16;;;;;;;6.8;4.2;;;;;;;15.23;100;961.3832;;;;
2020/07/27 04:49:42;;;;;;;7.9;4.2;;;;;;;15.22;100;961.3723;;;;
2020/07/27 04:52:11;;;;;;;9.3;4.2;;;;;;;15.29;100;961.3506;;;;
2020/07/27 04:54:38;;;;;;;7.7;3.9;;;;;;;15.34;100;961.3423;;;;
2020/07/27 04:57:03;;;;;;;5.8;3.9;;;;;;;15.37;100;961.3876;;;;
2020/07/27 04:59:28;;;;;;;7.6;4.2;;;;;;;15.33;100;961.4377;;;;
2020/07/27 05:01:56;;;;;;;5.6;3.5;;;;;;;15.48;100;961.4653;;;;
2020/07/27 05:04:24;;;;;;;4.8;3.4;;;;;;;15.53;100;961.4384;;;;
2020/07/27 05:06:58;;;;;;;8.7;3.6;;;;;;;15.5;100;961.4153;;;;
2020/07/27 05:09:25;;;;;;;11.6;4.3;;;;;;;15.46;100;961.3287;;;;
2020/07/27 05:12:07;;;;;;;8.6;4.3;;;;;;;15.45;100;961.4084;;;;
2020/07/27 05:14:40;;;;;;;6.9;4.2;;;;;;;15.5;100;961.4038;;;;
2020/07/27 05:17:06;;;;;;;5.6;4.2;;;;;;;15.54;100;961.3759;;;;
2020/07/27 05:19:31;;;;;;;6.2;4;;;;;;;15.59;100;961.3638;;;;
2020/07/27 05:22:02;;;;;;;8.4;4.2;;;;;;;15.66;100;961.2685;;;;
2020/07/27 05:24:27;;;;;;;5.5;4.3;;;;;;;15.61;100;961.2831;;;;
2020/07/27 05:26:55;;;;;;;7.2;4.1;;;;;;;15.62;100;961.3187;;;;
2020/07/27 05:29:20;;;;;;;6.9;3.7;;;;;;;15.64;100;961.3401;;;;
2020/07/27 05:31:54;;;;;;;7.4;4.1;;;;;;;15.69;100;961.3183;;;;
2020/07/27 05:34:19;;;;;;;5.2;4;;;;;;;15.72;100;961.3035;;;;
2020/07/27 05:36:44;;;;;;;10.1;3.9;;;;;;;15.71;100;961.3553;;;;
2020/07/27 05:39:11;;;;;;;5.7;3.7;;;;;;;15.77;100;961.3218;;;;
2020/07/27 05:41:41;;;;;;;7.2;3.6;;;;;;;15.77;100;961.293;;;;
2020/07/27 05:44:14;;;;;;;4.9;3.8;;;;;;;15.88;100;961.2782;;;;
2020/07/27 05:46:41;;;;;;;5.2;3.5;;;;;;;15.8;100;961.2783;;;;
2020/07/27 05:49:06;;;;;;;5.3;3.3;;;;;;;15.82;100;961.2651;;;;
2020/07/27 05:51:31;;;;;;;4.7;2.9;;;;;;;15.89;100;961.2578;;;;
2020/07/27 05:53:56;;;;;;;4.1;2.9;;;;;;;15.95;100;961.2612;;;;
2020/07/27 05:56:23;;;;;;;5.1;3.3;;;;;;;16;100;961.2651;;;;
2020/07/27 05:58:47;;;;;;;3.7;2.7;;;;;;;16.14;100;961.3072;;;;
2020/07/27 06:01:13;;;;;;;4.1;2.9;;;;;;;16.07;100;961.2866;;;;
2020/07/27 06:03:38;;;;;;;5.7;3.1;;;;;;;16.23;100;961.3417;;;;
2020/07/27 06:06:03;;;;;;;4.5;2.6;;;;;;;16.27;100;961.3334;;;;
2020/07/27 06:08:28;;;;;;;5.3;3;;;;;;;16.39;100;961.3308;;;;
2020/07/27 06:10:57;;;;;;;6.9;3;;;;;;;16.46;100;961.3285;;;;
2020/07/27 06:13:24;;;;;;;5.2;2.9;;;;;;;16.53;100;961.3439;;;;
2020/07/27 06:15:58;;;;;;;6.2;3.2;;;;;;;16.55;100;961.4247;;;;
2020/07/27 06:18:27;;;;;;;4.6;3.8;;;;;;;16.49;100;961.4182;;;;
2020/07/27 06:20:55;;;;;;;5.2;3.5;;;;;;;16.66;100;961.3996;;;;
2020/07/27 06:23:23;;;;;;;4.2;3.1;;;;;;;16.79;100;961.4361;;;;
2020/07/27 06:25:58;;;;;;;4.7;3;;;;;;;16.9;100;961.3945;;;;
2020/07/27 06:28:23;;;;;;;3.8;2.5;;;;;;;16.97;100;961.4126;;;;
2020/07/27 06:30:50;;;;;;;3.6;2.9;;;;;;;16.96;100;961.3467;;;;
2020/07/27 06:33:15;;;;;;;5;2.6;;;;;;;17;100;961.302;;;;
2020/07/27 06:35:42;;;;;;;2.9;2.3;;;;;;;17.1;100;961.3956;;;;
2020/07/27 06:38:09;;;;;;;3.2;2.6;;;;;;;17.15;100;961.3346;;;;
2020/07/27 06:40:40;;;;;;;5.6;2.5;;;;;;;17.2;100;961.3716;;;;
2020/07/27 06:43:05;;;;;;;6.2;2.6;;;;;;;17.33;100;961.4154;;;;
2020/07/27 06:45:33;;;;;;;4;2.3;;;;;;;17.51;100;961.3371;;;;
2020/07/27 06:48:11;;;;;;;3.6;2.2;;;;;;;17.65;100;961.301;;;;
2020/07/27 06:50:47;;;;;;;5.4;2;;;;;;;17.73;100;961.2838;;;;
2020/07/27 06:53:12;;;;;;;3.8;2.1;;;;;;;17.76;100;961.3323;;;;
2020/07/27 06:55:37;;;;;;;6.5;2.2;;;;;;;17.86;100;961.3318;;;;
2020/07/27 06:58:02;;;;;;;4.6;2.4;;;;;;;17.87;100;961.2743;;;;
2020/07/27 07:00:30;;;;;;;3.5;2.4;;;;;;;17.92;100;961.315;;;;
2020/07/27 07:02:55;;;;;;;2.9;2.1;;;;;;;17.97;100;961.3222;;;;
2020/07/27 07:05:21;;;;;;;4.6;2.5;;;;;;;17.93;100;961.3208;;;;
2020/07/27 07:07:46;;;;;;;3.1;1.8;;;;;;;17.98;100;961.2593;;;;
2020/07/27 07:10:11;;;;;;;2.6;1.8;;;;;;;17.93;100;961.2781;;;;
2020/07/27 07:12:36;;;;;;;3.8;1.6;;;;;;;17.83;100;961.2606;;;;
2020/07/27 07:15:01;;;;;;;3.4;1.7;;;;;;;17.78;100;961.2286;;;;
2020/07/27 07:17:26;;;;;;;2;1.5;;;;;;;17.74;100;961.2722;;;;
2020/07/27 07:19:51;;;;;;;4.3;1.3;;;;;;;17.77;100;961.2469;;;;
2020/07/27 07:22:17;;;;;;;2.7;1.3;;;;;;;17.83;100;961.2325;;;;
2020/07/27 07:24:42;;;;;;;3;1.4;;;;;;;17.93;100;961.2729;;;;
2020/07/27 07:27:07;;;;;;;3;1.2;;;;;;;18.04;100;961.2261;;;;
2020/07/27 07:29:32;;;;;;;3.5;1.3;;;;;;;18.11;100;961.1867;;;;
2020/07/27 07:31:57;;;;;;;2.8;1.2;;;;;;;18.1;100;961.2338;;;;
2020/07/27 07:34:22;;;;;;;2.4;1.2;;;;;;;18.14;100;961.2427;;;;
2020/07/27 07:36:47;;;;;;;2.4;1.2;;;;;;;18.2;100;961.2024;;;;
2020/07/27 07:39:12;;;;;;;3.5;1;;;;;;;18.26;100;961.2094;;;;
2020/07/27 07:41:44;;;;;;;4.3;1.1;;;;;;;18.3;100;961.2165;;;;
2020/07/27 07:44:09;;;;;;;4.2;1.4;;;;;;;18.3;100;961.1678;;;;
2020/07/27 07:46:36;;;;;;;2.3;1.1;;;;;;;18.36;100;961.187;;;;
2020/07/27 07:49:01;;;;;;;2.8;1.1;;;;;;;18.44;100;961.1508;;;;
2020/07/27 07:51:26;;;;;;;1.7;1;;;;;;;18.5;100;961.1372;;;;
2020/07/27 07:53:51;;;;;;;2.4;1.2;;;;;;;18.65;100;961.1183;;;;
2020/07/27 07:56:17;;;;;;;2.6;1.2;;;;;;;18.66;100;961.1446;;;;
2020/07/27 07:58:42;;;;;;;1.5;1.2;;;;;;;18.76;100;961.1011;;;;
2020/07/27 08:01:09;;;;;;;9.4;2.3;;;;;;;18.89;100;961.1186;;;;
2020/07/27 08:03:34;;;;;;;4.7;1.5;;;;;;;18.83;100;961.1309;;;;
2020/07/27 08:05:59;;;;;;;1.7;1.1;;;;;;;18.8;100;961.0873;;;;
2020/07/27 08:08:25;;;;;;;3.7;1.2;;;;;;;18.86;100;961.0313;;;;
2020/07/27 08:10:52;;;;;;;2.9;1.2;;;;;;;18.97;100;961.0128;;;;
2020/07/27 08:13:18;;;;;;;1.7;1.2;;;;;;;19;100;960.9645;;;;
2020/07/27 08:15:46;;;;;;;2.7;1.1;;;;;;;19.11;100;960.9036;;;;
2020/07/27 08:18:11;;;;;;;1.7;1.1;;;;;;;19.16;100;960.9221;;;;
2020/07/27 08:20:36;;;;;;;2.9;1.1;;;;;;;19.3;100;960.9188;;;;
2020/07/27 08:23:01;;;;;;;2.3;1.2;;;;;;;19.3;100;960.9114;;;;
2020/07/27 08:25:27;;;;;;;1.3;1;;;;;;;19.37;100;960.8814;;;;
2020/07/27 08:27:52;;;;;;;2.2;1.2;;;;;;;19.52;100;960.9067;;;;
2020/07/27 08:30:17;;;;;;;1.4;1.2;;;;;;;19.66;100;960.9308;;;;
2020/07/27 08:32:43;;;;;;;1.2;1.1;;;;;;;19.78;100;960.9026;;;;
2020/07/27 08:35:13;;;;;;;1.3;0.9;;;;;;;19.79;100;960.875;;;;
2020/07/27 08:37:38;;;;;;;1.2;1;;;;;;;19.85;100;960.8444;;;;
2020/07/27 08:40:03;;;;;;;1.8;1.1;;;;;;;19.93;100;960.83;;;;
2020/07/27 08:42:28;;;;;;;1.7;1;;;;;;;20.5;100;960.8289;;;;
2020/07/27 08:44:53;;;;;;;1.2;0.9;;;;;;;20.33;100;960.8102;;;;
2020/07/27 08:47:18;;;;;;;1.9;1;;;;;;;20.13;100;960.791;;;;
2020/07/27 08:49:43;;;;;;;2.3;1;;;;;;;20.11;100;960.7551;;;;
2020/07/27 08:52:08;;;;;;;1.5;1;;;;;;;20.14;100;960.7389;;;;
2020/07/27 08:54:34;;;;;;;1.8;1.2;;;;;;;20.16;100;960.7244;;;;
2020/07/27 08:56:59;;;;;;;1.4;1;;;;;;;20.14;100;960.7092;;;;
2020/07/27 08:59:24;;;;;;;0.8;0.8;;;;;;;20.18;100;960.6876;;;;
2020/07/27 09:01:49;;;;;;;1.4;1;;;;;;;20.3;100;960.688;;;;
2020/07/27 09:04:14;;;;;;;1.4;1;;;;;;;20.36;100;960.7101;;;;
2020/07/27 09:06:41;;;;;;;1.9;1.2;;;;;;;20.52;100;960.7051;;;;
2020/07/27 09:09:06;;;;;;;1.7;1.2;;;;;;;20.63;97.49121;960.7271;;;;
2020/07/27 09:11:31;;;;;;;1.1;0.7;;;;;;;20.71;100;960.7921;;;;
2020/07/27 09:13:56;;;;;;;0.9;0.9;;;;;;;20.78;100;960.785;;;;
2020/07/27 09:16:22;;;;;;;1.4;1;;;;;;;20.89;97.8877;960.7803;;;;
2020/07/27 09:18:47;;;;;;;1.5;1;;;;;;;20.96;98.50488;960.7773;;;;
2020/07/27 09:21:12;;;;;;;3.2;1;;;;;;;20.95;100;960.7744;;;;
2020/07/27 09:23:37;;;;;;;1.1;0.8;;;;;;;21.08;100;960.7036;;;;
2020/07/27 09:26:05;;;;;;;4.7;1.4;;;;;;;21.24;100;960.7542;;;;
2020/07/27 09:28:31;;;;;;;1.5;0.9;;;;;;;21.45;97.62109;960.7019;;;;
2020/07/27 09:31:01;;;;;;;2.1;0.8;;;;;;;21.42;100;960.7433;;;;
2020/07/27 09:33:26;;;;;;;1.4;1.1;;;;;;;21.53;99.88281;960.6728;;;;
2020/07/27 09:35:55;;;;;;;1.4;1;;;;;;;21.53;100;960.6462;;;;
2020/07/27 09:38:20;;;;;;;1.8;1.2;;;;;;;21.57;100;960.6166;;;;
2020/07/27 09:40:45;;;;;;;2.1;1.2;;;;;;;21.62;100;960.5571;;;;
2020/07/27 09:43:10;;;;;;;1.9;0.9;;;;;;;21.81;100;960.4722;;;;
2020/07/27 09:46:08;;;;;;;1.2;0.7;;;;;;;21.92;100;960.4927;;;;
2020/07/27 09:48:33;;;;;;;2.2;1.1;;;;;;;22.01;100;960.4467;;;;
2020/07/27 09:50:58;;;;;;;1.6;0.6;;;;;;;22;100;960.4161;;;;
2020/07/27 09:53:23;;;;;;;1.1;0.8;;;;;;;22.1;100;960.3308;;;;
2020/07/27 09:55:49;;;;;;;2.4;0.8;;;;;;;22.18;98.69336;960.2983;;;;
2020/07/27 09:58:14;;;;;;;1.3;0.8;;;;;;;22.31;100;960.3397;;;;
2020/07/27 10:00:44;;;;;;;1.4;0.9;;;;;;;22.3;100;960.3162;;;;
2020/07/27 10:03:09;;;;;;;1.6;0.8;;;;;;;22.34;99.19043;960.2403;;;;
2020/07/27 10:05:34;;;;;;;1.5;0.7;;;;;;;22.36;100;960.2491;;;;
2020/07/27 10:07:59;;;;;;;1.1;0.8;;;;;;;22.4;95.68066;960.2451;;;;
2020/07/27 10:10:24;;;;;;;1.5;0.8;;;;;;;22.69;95.04395;960.2958;;;;
2020/07/27 10:12:49;;;;;;;1.9;1;;;;;;;22.74;91.73047;960.2911;;;;
2020/07/27 10:15:14;;;;;;;1;0.9;;;;;;;22.74;96.49902;960.2911;;;;
2020/07/27 10:17:39;;;;;;;1.7;0.7;;;;;;;22.76;99.91113;960.3019;;;;
2020/07/27 10:20:07;;;;;;;0.9;0.7;;;;;;;22.8;91.48145;960.2413;;;;
2020/07/27 10:22:30;;;;;;;1.9;0.9;;;;;;;22.84;92.95801;960.2199;;;;
2020/07/27 10:24:55;;;;;;;1.4;1;;;;;;;22.92;91.28223;960.2436;;;;
2020/07/27 10:27:20;;;;;;;1.1;0.8;;;;;;;22.95;81.7832;960.1906;;;;
2020/07/27 10:29:45;;;;;;;2.8;0.9;;;;;;;22.97;82.71973;960.1301;;;;
2020/07/27 10:32:10;;;;;;;1.4;0.9;;;;;;;22.95;85.60352;960.0945;;;;
2020/07/27 10:34:35;;;;;;;1.5;1;;;;;;;22.96;81.93848;960.1179;;;;
2020/07/27 10:37:00;;;;;;;2.2;0.7;;;;;;;23.1;81.87988;960.079;;;;
2020/07/27 10:39:25;;;;;;;0.8;0.7;;;;;;;23.19;78.75781;960.0374;;;;
2020/07/27 10:41:50;;;;;;;1.4;0.7;;;;;;;23.31;79.04004;959.9871;;;;
2020/07/27 10:44:16;;;;;;;1.9;0.8;;;;;;;23.35;83.8457;959.9769;;;;
2020/07/27 10:46:41;;;;;;;4;0.8;;;;;;;23.37;81.46777;959.9081;;;;
2020/07/27 10:49:06;;;;;;;1.4;0.8;;;;;;;23.44;80.89941;959.9472;;;;
2020/07/27 10:51:31;;;;;;;1.2;0.7;;;;;;;23.39;79.31348;959.9064;;;;
2020/07/27 10:53:56;;;;;;;0.9;0.8;;;;;;;23.4;80.67871;959.8283;;;;
2020/07/27 10:56:21;;;;;;;2.8;0.8;;;;;;;23.58;77.92676;959.937;;;;
2020/07/27 10:58:46;;;;;;;1.2;0.8;;;;;;;23.71;81.43457;959.801;;;;
2020/07/27 11:01:11;;;;;;;1;0.8;;;;;;;23.98;79.51465;959.7821;;;;
2020/07/27 11:03:36;;;;;;;2.3;1;;;;;;;23.8;76.61133;959.6658;;;;
2020/07/27 11:06:01;;;;;;;2.3;0.7;;;;;;;23.84;77.80371;959.6436;;;;
2020/07/27 11:08:26;;;;;;;1.8;1;;;;;;;23.8;77.00293;959.5709;;;;
2020/07/27 11:10:52;;;;;;;1.1;0.9;;;;;;;23.8;78.40332;959.4874;;;;
2020/07/27 11:13:17;;;;;;;1.1;0.8;;;;;;;24.07;80.76465;959.5517;;;;
2020/07/27 11:15:49;;;;;;;1;0.7;;;;;;;24.06;75.97949;959.5529;;;;
2020/07/27 11:18:14;;;;;;;1.9;0.7;;;;;;;24.14;75.16113;959.4545;;;;
2020/07/27 11:20:39;;;;;;;0.7;0.7;;;;;;;23.97;75.69043;959.4364;;;;
2020/07/27 11:23:04;;;;;;;0.9;0.7;;;;;;;23.92;76.02832;959.4202;;;;
2020/07/27 11:25:29;;;;;;;1;0.9;;;;;;;23.91;73.67578;959.3692;;;;
2020/07/27 11:27:54;;;;;;;0.9;0.8;;;;;;;23.83;79.92578;959.341;;;;
2020/07/27 11:30:20;;;;;;;1.8;0.8;;;;;;;23.76;78.49023;959.3159;;;;
2020/07/27 11:32:45;;;;;;;0.8;0.6;;;;;;;23.74;76.83984;959.2597;;;;
2020/07/27 11:35:10;;;;;;;1.7;0.9;;;;;;;23.88;77.24121;959.2305;;;;
2020/07/27 11:37:35;;;;;;;1.3;0.7;;;;;;;23.96;78.33594;959.2558;;;;
2020/07/27 11:40:00;;;;;;;1.2;0.8;;;;;;;24.11;76.8916;959.2281;;;;
2020/07/27 11:42:26;;;;;;;0.9;0.7;;;;;;;24.36;74.80859;959.1308;;;;
2020/07/27 11:44:51;;;;;;;1.6;0.7;;;;;;;24.43;72.34863;959.1003;;;;
2020/07/27 11:47:16;;;;;;;4.4;1.1;;;;;;;24.48;74.20898;959.0472;;;;
2020/07/27 11:49:41;;;;;;;1.6;0.8;;;;;;;24.7;70.61035;959.017;;;;
2020/07/27 11:52:06;;;;;;;1;0.7;;;;;;;24.8;70.30566;958.9517;;;;
2020/07/27 11:54:31;;;;;;;1.3;0.7;;;;;;;24.87;70.14844;958.9857;;;;
2020/07/27 11:56:56;;;;;;;1.5;0.7;;;;;;;24.74;71.98145;958.9375;;;;
2020/07/27 11:59:21;;;;;;;0.6;0.6;;;;;;;24.87;67.39063;958.9364;;;;
2020/07/27 12:01:49;;;;;;;3.1;0.8;;;;;;;25.05;66.37207;958.9736;;;;
2020/07/27 12:04:14;;;;;;;0.8;0.8;;;;;;;25.23;66.73145;958.9537;;;;
2020/07/27 12:06:39;;;;;;;1.4;0.8;;;;;;;25.32;66.93555;958.88;;;;
2020/07/27 12:09:04;;;;;;;0.7;0.7;;;;;;;25.22;66.28906;958.8258;;;;
2020/07/27 12:11:29;;;;;;;0.9;0.7;;;;;;;25.24;66.12598;958.8161;;;;
2020/07/27 12:13:54;;;;;;;1.3;0.7;;;;;;;25.16;66.49414;958.7745;;;;
2020/07/27 12:16:19;;;;;;;1;0.6;;;;;;;25.1;67.42578;958.765;;;;
2020/07/27 12:18:44;;;;;;;0.7;0.6;;;;;;;25.39;60.76855;958.7441;;;;
2020/07/27 12:21:09;;;;;;;0.7;0.6;;;;;;;25.35;63.93848;958.7388;;;;
2020/07/27 12:23:35;;;;;;;0.6;0.6;;;;;;;25.38;64.68164;958.6942;;;;
2020/07/27 12:26:00;;;;;;;2.9;0.8;;;;;;;25.57;61.66113;958.6669;;;;
2020/07/27 12:28:25;;;;;;;0.7;0.7;;;;;;;25.72;61.86133;958.6387;;;;
2020/07/27 12:30:50;;;;;;;2;0.7;;;;;;;25.82;60.79004;958.5676;;;;
2020/07/27 12:33:15;;;;;;;0.7;0.6;;;;;;;25.98;61.09863;958.5812;;;;
2020/07/27 12:35:40;;;;;;;1.6;0.7;;;;;;;25.96;60.83301;958.5639;;;;
2020/07/27 12:38:05;;;;;;;0.8;0.8;;;;;;;26.08;61.33887;958.4456;;;;
2020/07/27 12:40:30;;;;;;;2.3;1;;;;;;;26.25;60.39453;958.4216;;;;
2020/07/27 12:42:55;;;;;;;0.7;0.7;;;;;;;26.29;60.04297;958.4172;;;;
2020/07/27 12:45:23;;;;;;;1.6;0.8;;;;;;;26.45;62.70117;958.3876;;;;
2020/07/27 12:47:49;;;;;;;1.7;0.8;;;;;;;26.76;59.29395;958.3268;;;;
2020/07/27 12:50:14;;;;;;;1.6;0.8;;;;;;;26.94;58.60059;958.3024;;;;
2020/07/27 12:52:39;;;;;;;5;1;;;;;;;26.89;59.38281;958.3063;;;;
2020/07/27 12:55:04;;;;;;;1.7;0.8;;;;;;;26.65;60.04297;958.229;;;;
2020/07/27 12:57:29;;;;;;;2.9;1.1;;;;;;;26.33;63.67383;958.1641;;;;
2020/07/27 12:59:54;;;;;;;1.2;0.7;;;;;;;26.33;59.91699;958.1484;;;;
2020/07/27 13:02:19;;;;;;;1.2;0.7;;;;;;;26.27;60.32715;958.059;;;;
2020/07/27 13:04:44;;;;;;;0.9;0.7;;;;;;;26.13;61.23633;958.0236;;;;
2020/07/27 13:07:09;;;;;;;0.6;0.6;;;;;;;26.02;61.73438;957.9981;;;;
2020/07/27 13:09:34;;;;;;;2.6;0.8;;;;;;;26.28;61.18652;957.9572;;;;
2020/07/27 13:11:59;;;;;;;0.6;0.6;;;;;;;26.48;59.37598;957.9066;;;;
2020/07/27 13:14:25;;;;;;;1.6;0.7;;;;;;;26.68;59.45117;957.9556;;;;
2020/07/27 13:16:50;;;;;;;1.5;0.5;;;;;;;26.8;57.8418;957.9133;;;;
2020/07/27 13:19:15;;;;;;;1.9;0.6;;;;;;;26.89;55.76367;957.9339;;;;
2020/07/27 13:21:40;;;;;;;1.1;0.7;;;;;;;27.06;55.04297;957.8723;;;;
2020/07/27 13:24:05;;;;;;;1;0.6;;;;;;;27.17;56.27539;957.8641;;;;
2020/07/27 13:26:30;;;;;;;0.9;0.6;;;;;;;27.32;52.85156;957.89;;;;
2020/07/27 13:28:55;;;;;;;1.9;0.6;;;;;;;27.7;54.47754;957.9158;;;;
2020/07/27 13:31:20;;;;;;;1.1;0.5;;;;;;;27.93;49.60742;957.9171;;;;
2020/07/27 13:33:45;;;;;;;1.4;0.5;;;;;;;27.8;50.15625;957.8669;;;;
2020/07/27 13:36:10;;;;;;;1;0.7;;;;;;;27.69;50.81445;957.815;;;;
2020/07/27 13:38:35;;;;;;;1.1;0.6;;;;;;;27.6;51.28223;957.858;;;;
2020/07/27 13:41:00;;;;;;;1.6;0.6;;;;;;;27.62;51.42773;957.8003;;;;
2020/07/27 13:43:26;;;;;;;1.1;0.6;;;;;;;27.55;50.36719;957.8229;;;;
2020/07/27 13:45:52;;;;;;;0.9;0.6;;;;;;;27.6;50.60059;957.7383;;;;
2020/07/27 13:48:18;;;;;;;0.6;0.6;;;;;;;27.75;49.49316;957.7039;;;;
2020/07/27 13:50:51;;;;;;;0.9;0.5;;;;;;;27.86;46.5957;957.7101;;;;
2020/07/27 13:53:17;;;;;;;0.9;0.6;;;;;;;27.81;49.23535;957.6591;;;;
2020/07/27 13:55:48;;;;;;;0.6;0.6;;;;;;;27.71;50.2666;957.6305;;;;
2020/07/27 13:58:13;;;;;;;0.7;0.5;;;;;;;27.73;49.12012;957.5491;;;;
2020/07/27 14:00:46;;;;;;;1.6;0.6;;;;;;;27.87;50.49902;957.4306;;;;
2020/07/27 14:03:10;;;;;;;0.6;0.6;;;;;;;27.97;49.34863;957.5016;;;;
2020/07/27 14:05:36;;;;;;;0.5;0.5;;;;;;;28.17;51;957.4547;;;;
2020/07/27 14:08:01;;;;;;;2.3;0.6;;;;;;;28.23;52.65918;957.4088;;;;
2020/07/27 14:10:26;;;;;;;1;0.6;;;;;;;28.16;49.47852;957.4678;;;;
2020/07/27 14:12:51;;;;;;;1.1;0.6;;;;;;;28.44;46.77539;957.3869;;;;
2020/07/27 14:15:16;;;;;;;3.3;0.6;;;;;;;28.5;46.08691;957.3734;;;;
2020/07/27 14:17:41;;;;;;;2.1;0.7;;;;;;;28.48;49.41699;957.3124;;;;
2020/07/27 14:20:07;;;;;;;0.7;0.6;;;;;;;28.48;47.37891;957.2637;;;;
2020/07/27 14:22:32;;;;;;;1;0.6;;;;;;;28.44;47.63965;957.2229;;;;
2020/07/27 14:24:57;;;;;;;1.1;0.6;;;;;;;28.37;46.56543;957.113;;;;
2020/07/27 14:27:23;;;;;;;1.1;0.7;;;;;;;28.22;48.52734;957.0983;;;;
2020/07/27 14:29:48;;;;;;;1.2;0.7;;;;;;;28.59;45.82031;957.1301;;;;
2020/07/27 14:32:13;;;;;;;1.2;0.6;;;;;;;28.44;44.61816;957.084;;;;
2020/07/27 14:34:39;;;;;;;1.6;1;;;;;;;28.43;46.55957;957.026;;;;
2020/07/27 14:37:04;;;;;;;1;0.7;;;;;;;28.54;47.45801;957.0164;;;;
2020/07/27 14:39:29;;;;;;;0.6;0.6;;;;;;;28.53;47.59961;957.002;;;;
2020/07/27 14:41:54;;;;;;;0.7;0.6;;;;;;;28.64;46.28223;956.9686;;;;
2020/07/27 14:44:19;;;;;;;1.4;0.6;;;;;;;28.63;48.11426;956.9636;;;;
2020/07/27 14:46:44;;;;;;;0.6;0.5;;;;;;;28.42;46.8457;956.9451;;;;
2020/07/27 14:49:09;;;;;;;1.6;0.7;;;;;;;28.48;47.85938;956.9344;;;;
2020/07/27 14:51:35;;;;;;;0.6;0.5;;;;;;;28.48;46.56445;956.8613;;;;
2020/07/27 14:54:01;;;;;;;1.8;0.7;;;;;;;28.44;49.61621;956.8784;;;;
2020/07/27 14:56:26;;;;;;;0.5;0.5;;;;;;;28.46;47.50879;956.872;;;;
2020/07/27 14:58:52;;;;;;;1.5;0.6;;;;;;;28.4;49.18164;956.8325;;;;
2020/07/27 15:03:42;;;;;;;0.8;0.6;;;;;;;28.29;48.16113;956.8055;;;;
2020/07/27 15:06:09;;;;;;;0.7;0.6;;;;;;;28.44;51.67773;956.7684;;;;
2020/07/27 15:08:34;;;;;;;3.6;0.7;;;;;;;28.58;45.25684;956.7523;;;;